Terminal Aerodrome Forecast
Issued by NWS

Home | Current Version | Previous Version | Text Only | Print | Product List | Glossary On
Versions: 1 2 3 4 5 6 7 8 9 10 11 12 13 14
890
FTAK31 PAJN 221730
TAFASI
TAF
PASI 221730Z 2218/2318 25004KT P6SM VCSH FEW025 BKN060
      TEMPO 2218/2221 VRB05KT -SHRA SCT025 OVC060
     FM222100 27006KT P6SM VCSH BKN060
     FM230300 30005KT P6SM SCT060=

USA.gov is the U.S. government's official web portal to all federal, state and local government web resources and services.